Time;durP1;ratioP1;P1;durP2;ratioP2;P2;SDS_P1;SDS_P2;PMS_P1;PMS_P2;Temp;Humidity;BMP_temperature;BMP_pressure;BME280_temperature;BME280_humidity;BME280_pressure;Samples;Min_cycle;Max_cycle;Signal;HPM_P1;HPM_P2
2022/04/26 03:37:49;;;;;;;77.80;36.10;;;;;;;;;;5052499;28;20419;-50
2022/04/26 03:40:16;;;;;;;71.60;36.90;;;;;;;;;;5052450;28;20554;-59
2022/04/26 03:42:42;;;;;;;71.80;35.07;;;;;;;;;;5052369;28;20462;-58
2022/04/26 03:45:08;;;;;;;73.83;35.90;;;;;;;;;;5052149;28;20411;-52
2022/04/26 03:47:34;;;;;;;76.57;35.27;;;;;;;;;;5052179;28;20412;-65
2022/04/26 03:50:00;;;;;;;80.00;34.83;;;;;;;;;;5052283;28;20410;-56
2022/04/26 03:52:26;;;;;;;71.07;34.17;;;;;;;;;;5052114;28;20776;-60
2022/04/26 03:54:52;;;;;;;70.23;34.60;;;;;;;;;;5051895;28;20407;-62
2022/04/26 03:57:18;;;;;;;76.07;36.00;;;;;;;;;;5051931;28;20435;-49
2022/04/26 03:59:44;;;;;;;69.43;35.47;;;;;;;;;;5052187;28;20966;-51
2022/04/26 04:02:10;;;;;;;67.87;34.00;;;;;;;;;;5050904;28;20427;-54
2022/04/26 04:04:36;;;;;;;71.83;35.43;;;;;;;;;;5051969;28;20443;-62
2022/04/26 04:07:03;;;;;;;73.73;35.90;;;;;;;;;;5052205;28;20499;-61
2022/04/26 04:09:29;;;;;;;69.03;35.20;;;;;;;;;;5052119;28;20431;-50
2022/04/26 04:11:55;;;;;;;75.17;34.33;;;;;;;;;;5052004;28;20447;-50
2022/04/26 04:14:21;;;;;;;79.57;36.67;;;;;;;;;;5051954;28;20410;-49
2022/04/26 04:16:47;;;;;;;73.90;36.03;;;;;;;;;;5050660;28;20907;-52
2022/04/26 04:19:19;;;;;;;78.57;36.40;;;;;;;;;;5052045;28;20412;-53
2022/04/26 04:21:49;;;;;;;71.27;35.40;;;;;;;;;;5051921;28;20475;-59
2022/04/26 04:24:16;;;;;;;70.90;36.03;;;;;;;;;;5051854;28;20411;-53
2022/04/26 04:26:42;;;;;;;75.43;37.00;;;;;;;;;;5051861;28;20419;-58
2022/04/26 04:29:08;;;;;;;69.57;34.67;;;;;;;;;;5051861;28;20819;-60
2022/04/26 04:31:34;;;;;;;71.37;36.70;;;;;;;;;;5051796;28;20431;-52
2022/04/26 04:34:02;;;;;;;64.00;33.60;;;;;;;;;;5037305;28;20475;-56
2022/04/26 04:36:28;;;;;;;75.83;36.10;;;;;;;;;;5032520;28;20419;-54
2022/04/26 04:38:54;;;;;;;73.30;36.20;;;;;;;;;;5032268;28;20940;-56
2022/04/26 04:41:20;;;;;;;70.57;35.83;;;;;;;;;;5032293;28;20821;-51
2022/04/26 04:43:46;;;;;;;66.23;34.10;;;;;;;;;;5032222;28;20415;-54
2022/04/26 04:46:13;;;;;;;71.20;34.63;;;;;;;;;;5031752;28;20511;-51
2022/04/26 04:48:39;;;;;;;67.40;35.50;;;;;;;;;;5031748;28;20408;-52
2022/04/26 04:51:05;;;;;;;71.07;35.57;;;;;;;;;;5031598;28;20511;-55
2022/04/26 04:53:31;;;;;;;67.30;35.97;;;;;;;;;;5031509;28;20960;-53
2022/04/26 04:55:57;;;;;;;70.67;35.63;;;;;;;;;;5030380;28;20556;-53
2022/04/26 04:58:23;;;;;;;68.73;34.47;;;;;;;;;;5030076;28;20417;-52
2022/04/26 05:00:49;;;;;;;74.10;35.57;;;;;;;;;;5031894;28;20522;-50
2022/04/26 05:03:15;;;;;;;65.57;36.43;;;;;;;;;;5031554;28;20527;-58
2022/04/26 05:05:41;;;;;;;66.87;34.27;;;;;;;;;;5031649;28;20417;-57
2022/04/26 05:08:09;;;;;;;65.70;33.27;;;;;;;;;;5033135;28;20411;-50
2022/04/26 05:10:36;;;;;;;65.33;34.00;;;;;;;;;;5035080;28;20421;-54
2022/04/26 05:13:02;;;;;;;62.73;32.73;;;;;;;;;;5033613;28;20901;-57
2022/04/26 05:15:28;;;;;;;52.57;30.00;;;;;;;;;;5035103;28;20420;-51
2022/04/26 05:17:55;;;;;;;64.37;33.50;;;;;;;;;;5035067;28;20416;-55
2022/04/26 05:20:21;;;;;;;56.63;31.37;;;;;;;;;;5034996;28;20499;-51
2022/04/26 05:25:37;;;;;;;59.40;33.33;;;;;;;;;;5035075;28;20407;-57
2022/04/26 05:28:03;;;;;;;53.20;30.83;;;;;;;;;;5034831;28;20812;-54
2022/04/26 05:30:29;;;;;;;58.33;32.57;;;;;;;;;;5034808;28;20423;-48
2022/04/26 05:32:58;;;;;;;60.87;31.77;;;;;;;;;;5034549;28;20416;-50
2022/04/26 05:35:25;;;;;;;56.93;31.37;;;;;;;;;;5033232;28;20417;-51
2022/04/26 05:37:51;;;;;;;56.00;31.73;;;;;;;;;;5033229;28;20900;-57
2022/04/26 05:40:17;;;;;;;62.87;32.67;;;;;;;;;;5034632;28;20538;-60
2022/04/26 05:42:43;;;;;;;58.33;33.07;;;;;;;;;;5034443;28;20552;-53
2022/04/26 05:45:09;;;;;;;60.00;32.87;;;;;;;;;;5034326;28;20518;-55
2022/04/26 05:47:40;;;;;;;60.90;33.33;;;;;;;;;;5034439;28;20814;-57
2022/04/26 05:50:07;;;;;;;54.57;31.97;;;;;;;;;;5034282;28;20432;-64
2022/04/26 05:52:33;;;;;;;57.53;31.80;;;;;;;;;;5034261;28;20416;-65
2022/04/26 05:55:00;;;;;;;56.40;32.60;;;;;;;;;;5034208;28;20758;-52
2022/04/26 05:57:27;;;;;;;58.90;33.10;;;;;;;;;;5034380;28;20948;-61
2022/04/26 05:59:56;;;;;;;63.37;33.87;;;;;;;;;;5033974;28;20452;-57
2022/04/26 06:02:22;;;;;;;60.07;34.73;;;;;;;;;;5034106;28;20409;-56
2022/04/26 06:04:48;;;;;;;61.13;33.27;;;;;;;;;;5034340;28;20518;-59
2022/04/26 06:07:14;;;;;;;60.10;34.47;;;;;;;;;;5034149;28;20416;-54
2022/04/26 06:09:40;;;;;;;59.03;32.90;;;;;;;;;;5034001;28;20450;-54
2022/04/26 06:12:07;;;;;;;61.20;31.43;;;;;;;;;;5033882;28;20415;-55
2022/04/26 06:14:33;;;;;;;54.47;31.63;;;;;;;;;;5034094;28;20412;-57
2022/04/26 06:16:59;;;;;;;57.47;32.63;;;;;;;;;;5033689;28;20424;-59
2022/04/26 06:19:24;;;;;;;56.80;33.87;;;;;;;;;;5033340;28;20416;-52
2022/04/26 06:21:50;;;;;;;52.57;30.93;;;;;;;;;;5033483;28;20516;-57
2022/04/26 06:24:16;;;;;;;54.77;32.20;;;;;;;;;;5033816;28;20773;-56
2022/04/26 06:26:42;;;;;;;55.07;31.97;;;;;;;;;;5033635;28;20478;-59
2022/04/26 06:29:08;;;;;;;56.50;32.53;;;;;;;;;;5033702;28;20781;-52
2022/04/26 06:31:34;;;;;;;57.53;31.87;;;;;;;;;;5033553;28;20466;-56
2022/04/26 06:34:00;;;;;;;56.83;33.10;;;;;;;;;;5033440;28;20436;-56
2022/04/26 06:36:26;;;;;;;51.10;31.50;;;;;;;;;;5033512;28;20837;-54
2022/04/26 06:38:52;;;;;;;59.17;33.40;;;;;;;;;;5033371;28;20443;-53
2022/04/26 06:41:19;;;;;;;54.87;32.23;;;;;;;;;;5033556;28;20478;-53
2022/04/26 06:43:45;;;;;;;46.53;29.60;;;;;;;;;;5033328;28;20774;-54
2022/04/26 06:46:11;;;;;;;57.70;33.33;;;;;;;;;;5033408;28;20416;-53
2022/04/26 06:48:37;;;;;;;51.53;31.10;;;;;;;;;;5033473;28;20413;-52
2022/04/26 06:51:03;;;;;;;59.43;32.60;;;;;;;;;;5033064;28;20408;-50
2022/04/26 06:53:29;;;;;;;50.57;30.90;;;;;;;;;;5033080;28;20413;-58
2022/04/26 06:55:59;;;;;;;51.67;30.80;;;;;;;;;;5033256;28;20415;-54
2022/04/26 06:58:30;;;;;;;49.53;30.60;;;;;;;;;;5033132;28;20404;-58
2022/04/26 07:00:56;;;;;;;50.30;30.37;;;;;;;;;;5031510;28;20472;-58
2022/04/26 07:03:22;;;;;;;48.93;29.57;;;;;;;;;;5032752;28;20397;-52
2022/04/26 07:05:51;;;;;;;51.83;33.23;;;;;;;;;;5033206;28;20409;-54
2022/04/26 07:08:17;;;;;;;59.73;32.57;;;;;;;;;;5033014;28;20401;-59
2022/04/26 07:10:43;;;;;;;54.87;31.80;;;;;;;;;;5032634;28;20420;-53
2022/04/26 07:13:09;;;;;;;53.30;30.43;;;;;;;;;;5032787;28;20412;-57
2022/04/26 07:15:35;;;;;;;46.50;30.70;;;;;;;;;;5031735;28;20758;-50
2022/04/26 07:18:01;;;;;;;49.30;31.03;;;;;;;;;;5031472;28;20404;-57
2022/04/26 07:20:29;;;;;;;49.30;32.17;;;;;;;;;;5030609;28;20495;-55
2022/04/26 07:22:56;;;;;;;50.53;30.67;;;;;;;;;;5031736;28;20833;-53
2022/04/26 07:25:22;;;;;;;51.47;31.43;;;;;;;;;;5032536;28;20412;-54
2022/04/26 07:27:48;;;;;;;47.37;31.30;;;;;;;;;;5032944;28;20417;-59
2022/04/26 07:30:14;;;;;;;47.70;30.83;;;;;;;;;;5032097;28;20762;-51
2022/04/26 07:35:25;;;;;;;53.23;31.17;;;;;;;;;;5032431;28;21017;-51
2022/04/26 07:37:52;;;;;;;52.70;30.73;;;;;;;;;;5032612;28;20428;-55
2022/04/26 07:40:19;;;;;;;51.13;31.43;;;;;;;;;;5031515;28;20460;-60
2022/04/26 07:42:45;;;;;;;45.50;29.27;;;;;;;;;;5032361;28;20702;-51
2022/04/26 07:45:12;;;;;;;48.30;29.67;;;;;;;;;;5032314;28;20524;-50
2022/04/26 07:47:38;;;;;;;44.13;27.97;;;;;;;;;;5032574;28;20400;-55
2022/04/26 07:50:05;;;;;;;49.77;29.00;;;;;;;;;;5032166;28;20511;-54
2022/04/26 07:52:31;;;;;;;47.10;29.43;;;;;;;;;;5032409;28;20459;-58
2022/04/26 07:54:57;;;;;;;38.30;27.13;;;;;;;;;;5032107;28;20499;-56
2022/04/26 07:57:23;;;;;;;42.70;27.80;;;;;;;;;;5032025;28;20478;-57
2022/04/26 07:59:50;;;;;;;44.47;27.07;;;;;;;;;;5031985;28;20411;-52
2022/04/26 08:02:16;;;;;;;43.13;26.90;;;;;;;;;;5032297;28;20416;-54
2022/04/26 08:04:45;;;;;;;36.70;25.40;;;;;;;;;;5032046;28;20829;-54
2022/04/26 08:07:11;;;;;;;37.57;25.83;;;;;;;;;;5030833;28;20466;-61
2022/04/26 08:09:39;;;;;;;41.30;26.20;;;;;;;;;;5031843;28;20412;-52
2022/04/26 08:12:06;;;;;;;35.40;24.40;;;;;;;;;;5032119;28;20423;-50
2022/04/26 08:14:32;;;;;;;36.50;24.73;;;;;;;;;;5030437;28;20827;-50
2022/04/26 08:16:58;;;;;;;36.40;24.10;;;;;;;;;;5032009;28;20435;-51
2022/04/26 08:19:24;;;;;;;36.80;23.33;;;;;;;;;;5031763;28;20404;-53
2022/04/26 08:21:50;;;;;;;33.17;22.20;;;;;;;;;;5031580;28;20482;-50
2022/04/26 08:29:46;;;;;;;36.13;21.67;;;;;;;;;;5032342;28;20435;-54
2022/04/26 08:32:13;;;;;;;35.00;21.83;;;;;;;;;;5031713;28;20492;-53
2022/04/26 08:34:39;;;;;;;27.03;20.73;;;;;;;;;;5031880;28;20405;-52
2022/04/26 08:37:05;;;;;;;26.63;19.80;;;;;;;;;;5031767;28;20419;-53
2022/04/26 08:39:34;;;;;;;28.90;20.37;;;;;;;;;;5031597;28;20444;-54
2022/04/26 08:42:00;;;;;;;28.63;19.70;;;;;;;;;;5032981;28;20475;-55
2022/04/26 08:44:27;;;;;;;27.27;20.13;;;;;;;;;;5035669;28;20830;-50
2022/04/26 08:52:24;;;;;;;21.10;15.73;;;;;;;;;;5035597;28;20869;-60
2022/04/26 08:54:50;;;;;;;20.33;15.70;;;;;;;;;;5035566;28;20911;-72
2022/04/26 08:57:16;;;;;;;19.50;15.53;;;;;;;;;;5035679;28;20490;-66
2022/04/26 08:59:52;;;;;;;14.10;11.80;;;;;;;;;;5035204;28;20918;-76
2022/04/26 09:02:19;;;;;;;11.97;9.47;;;;;;;;;;5035239;28;20416;-75
2022/04/26 09:04:46;;;;;;;12.70;11.07;;;;;;;;;;5035374;28;20889;-74
2022/04/26 09:07:13;;;;;;;11.13;9.67;;;;;;;;;;5035009;28;20901;-72
2022/04/26 09:09:41;;;;;;;16.80;12.10;;;;;;;;;;5033659;28;20408;-75
2022/04/26 09:12:12;;;;;;;12.83;11.53;;;;;;;;;;5035273;28;20451;-73
2022/04/26 09:14:47;;;;;;;14.80;11.33;;;;;;;;;;5035172;28;20416;-71
2022/04/26 09:17:13;;;;;;;14.83;12.17;;;;;;;;;;5035165;28;20404;-68
2022/04/26 09:19:46;;;;;;;16.73;13.60;;;;;;;;;;5034938;28;20404;-61
2022/04/26 09:22:22;;;;;;;17.10;13.93;;;;;;;;;;5034900;28;21007;-56
2022/04/26 09:24:57;;;;;;;15.03;13.23;;;;;;;;;;5035154;28;20561;-63
2022/04/26 09:27:24;;;;;;;18.20;14.03;;;;;;;;;;5035020;28;20403;-64
2022/04/26 09:29:50;;;;;;;17.63;12.20;;;;;;;;;;5034888;28;20401;-57
2022/04/26 09:32:16;;;;;;;11.10;9.90;;;;;;;;;;5035120;28;20944;-54
2022/04/26 09:34:42;;;;;;;12.70;9.87;;;;;;;;;;5034947;28;20487;-61
2022/04/26 09:37:09;;;;;;;11.37;10.20;;;;;;;;;;5034931;28;20472;-58
2022/04/26 09:39:35;;;;;;;14.20;11.73;;;;;;;;;;5034632;28;20416;-58
2022/04/26 09:42:01;;;;;;;13.23;11.83;;;;;;;;;;5034748;28;21042;-68
2022/04/26 09:44:40;;;;;;;19.50;13.27;;;;;;;;;;5034531;28;20466;-55
2022/04/26 09:47:06;;;;;;;13.30;12.00;;;;;;;;;;5034737;28;21000;-67
2022/04/26 09:49:37;;;;;;;14.97;12.10;;;;;;;;;;5034469;28;20930;-54
2022/04/26 09:52:03;;;;;;;15.07;13.47;;;;;;;;;;5033515;28;20424;-58
2022/04/26 09:54:29;;;;;;;15.97;13.03;;;;;;;;;;5032330;28;20793;-57
2022/04/26 09:56:56;;;;;;;18.63;11.43;;;;;;;;;;5034482;28;20427;-59
2022/04/26 09:59:25;;;;;;;17.60;12.70;;;;;;;;;;5034611;28;20463;-66
2022/04/26 10:01:51;;;;;;;15.27;13.67;;;;;;;;;;5034272;28;20475;-61
2022/04/26 10:04:20;;;;;;;13.70;11.90;;;;;;;;;;5034502;28;20415;-58
2022/04/26 10:06:47;;;;;;;11.90;10.70;;;;;;;;;;5034615;28;20455;-59
2022/04/26 10:09:13;;;;;;;15.40;11.87;;;;;;;;;;5032608;28;20503;-64
2022/04/26 10:11:39;;;;;;;15.40;12.20;;;;;;;;;;5034366;28;20401;-52
2022/04/26 10:14:07;;;;;;;15.37;13.03;;;;;;;;;;5034014;28;20501;-58
2022/04/26 10:16:33;;;;;;;16.03;12.40;;;;;;;;;;5032762;28;20416;-63
2022/04/26 10:19:07;;;;;;;13.40;10.97;;;;;;;;;;5034031;28;20401;-60
2022/04/26 10:21:38;;;;;;;11.87;10.60;;;;;;;;;;5032295;28;20554;-63
2022/04/26 10:24:16;;;;;;;13.50;11.80;;;;;;;;;;5034093;28;20408;-57
2022/04/26 10:26:43;;;;;;;12.70;11.40;;;;;;;;;;5033843;28;20417;-56
2022/04/26 10:29:09;;;;;;;12.67;11.37;;;;;;;;;;5033721;28;20393;-62
2022/04/26 10:31:38;;;;;;;12.83;11.20;;;;;;;;;;5033835;28;20499;-59
2022/04/26 10:34:31;;;;;;;12.70;11.37;;;;;;;;;;5033889;28;20405;-61
2022/04/26 10:37:04;;;;;;;13.50;11.20;;;;;;;;;;5032465;28;20838;-69
2022/04/26 10:39:40;;;;;;;11.30;10.10;;;;;;;;;;5033654;28;20412;-54
2022/04/26 10:42:15;;;;;;;14.60;10.37;;;;;;;;;;5032322;28;20864;-70
2022/04/26 10:44:45;;;;;;;11.27;10.03;;;;;;;;;;5033511;28;20400;-66
2022/04/26 10:47:11;;;;;;;11.07;10.00;;;;;;;;;;5032150;28;20429;-66
2022/04/26 10:49:40;;;;;;;11.77;10.57;;;;;;;;;;5033429;28;20743;-63
2022/04/26 10:52:17;;;;;;;11.87;9.80;;;;;;;;;;5033573;28;20519;-61
2022/04/26 10:54:48;;;;;;;10.57;9.43;;;;;;;;;;5033308;28;20461;-63
2022/04/26 10:57:17;;;;;;;9.87;8.97;;;;;;;;;;5033729;28;20413;-63
2022/04/26 10:59:44;;;;;;;10.47;9.13;;;;;;;;;;5033309;28;20420;-66
2022/04/26 11:02:11;;;;;;;10.83;9.77;;;;;;;;;;5033254;28;20425;-63
2022/04/26 11:04:37;;;;;;;10.87;9.53;;;;;;;;;;5033091;28;20501;-53
2022/04/26 11:07:20;;;;;;;10.03;9.03;;;;;;;;;;5033335;28;20440;-61
2022/04/26 11:09:49;;;;;;;11.30;8.80;;;;;;;;;;5033437;28;20424;-61
2022/04/26 11:12:18;;;;;;;9.83;8.90;;;;;;;;;;5032882;28;20409;-53
2022/04/26 11:14:44;;;;;;;9.73;8.83;;;;;;;;;;5031650;28;20865;-55
2022/04/26 11:17:10;;;;;;;10.23;9.23;;;;;;;;;;5032771;28;20412;-59
2022/04/26 11:19:37;;;;;;;12.47;8.33;;;;;;;;;;5032867;28;20408;-52
2022/04/26 11:22:04;;;;;;;10.10;9.20;;;;;;;;;;5032564;28;20542;-54
2022/04/26 11:30:02;;;;;;;8.20;7.50;;;;;;;;;;5032775;28;20451;-61
2022/04/26 11:32:32;;;;;;;8.63;7.83;;;;;;;;;;5032733;28;20408;-56
2022/04/26 11:34:59;;;;;;;8.73;7.93;;;;;;;;;;5032802;28;20837;-54
2022/04/26 11:37:25;;;;;;;8.10;7.30;;;;;;;;;;5032726;28;20746;-56
2022/04/26 11:39:51;;;;;;;7.97;7.37;;;;;;;;;;5032823;28;20902;-58
2022/04/26 11:42:17;;;;;;;8.00;7.30;;;;;;;;;;5032687;28;20412;-57
2022/04/26 11:44:59;;;;;;;9.57;7.33;;;;;;;;;;5032538;28;20748;-53
2022/04/26 11:47:38;;;;;;;8.13;7.40;;;;;;;;;;5032542;28;20412;-58
2022/04/26 11:50:11;;;;;;;12.50;7.63;;;;;;;;;;5032162;28;20407;-53
2022/04/26 11:52:37;;;;;;;8.73;6.80;;;;;;;;;;5032385;28;20499;-73
2022/04/26 11:55:04;;;;;;;12.30;8.20;;;;;;;;;;5032165;28;20483;-69
2022/04/26 11:57:31;;;;;;;7.83;7.23;;;;;;;;;;5032281;28;20909;-59
2022/04/26 11:59:58;;;;;;;8.30;7.03;;;;;;;;;;5032085;28;20439;-59
2022/04/26 12:02:24;;;;;;;7.43;6.73;;;;;;;;;;5032140;28;20416;-58
2022/04/26 12:04:50;;;;;;;7.20;6.63;;;;;;;;;;5030841;28;20417;-52
2022/04/26 12:07:16;;;;;;;6.30;5.90;;;;;;;;;;5032357;28;20421;-69
2022/04/26 12:09:43;;;;;;;6.13;5.73;;;;;;;;;;5032077;28;20420;-71
2022/04/26 12:12:11;;;;;;;6.00;5.50;;;;;;;;;;5030813;28;20419;-61
2022/04/26 12:14:38;;;;;;;7.30;6.00;;;;;;;;;;5031913;28;20507;-66
2022/04/26 12:17:04;;;;;;;10.20;6.30;;;;;;;;;;5031734;28;20554;-53
2022/04/26 12:19:34;;;;;;;5.90;5.07;;;;;;;;;;5031987;28;20929;-59
2022/04/26 12:22:01;;;;;;;5.40;5.10;;;;;;;;;;5031741;28;20563;-64
2022/04/26 12:24:34;;;;;;;6.30;5.67;;;;;;;;;;5030685;28;20507;-54
2022/04/26 12:27:01;;;;;;;6.87;6.27;;;;;;;;;;5031930;28;20415;-64
2022/04/26 12:29:36;;;;;;;7.73;6.37;;;;;;;;;;5031751;28;20758;-66
2022/04/26 12:32:05;;;;;;;6.60;6.00;;;;;;;;;;5031794;28;20434;-57
2022/04/26 12:34:31;;;;;;;7.90;7.27;;;;;;;;;;5031686;28;20396;-69
2022/04/26 12:36:58;;;;;;;6.87;6.27;;;;;;;;;;5031740;28;20419;-58
2022/04/26 12:39:45;;;;;;;7.23;6.40;;;;;;;;;;5031592;28;20408;-58
2022/04/26 12:42:12;;;;;;;7.33;6.63;;;;;;;;;;5031380;28;20495;-54
2022/04/26 12:44:48;;;;;;;6.50;5.90;;;;;;;;;;5031534;28;20495;-54
2022/04/26 12:52:53;;;;;;;6.27;5.77;;;;;;;;;;5031572;28;20439;-64
2022/04/26 12:55:27;;;;;;;6.23;5.70;;;;;;;;;;5031577;28;20520;-53
2022/04/26 12:57:55;;;;;;;6.40;5.90;;;;;;;;;;5031394;28;20420;-60
2022/04/26 13:00:22;;;;;;;5.87;5.27;;;;;;;;;;5031391;28;20467;-52
2022/04/26 13:02:52;;;;;;;6.40;5.13;;;;;;;;;;5031680;28;20758;-52
2022/04/26 13:05:19;;;;;;;6.80;6.30;;;;;;;;;;5031457;28;20397;-62
2022/04/26 13:07:48;;;;;;;6.03;5.40;;;;;;;;;;5031387;28;20443;-53
2022/04/26 13:10:15;;;;;;;6.07;5.53;;;;;;;;;;5031300;28;20408;-53
2022/04/26 13:12:44;;;;;;;6.03;5.53;;;;;;;;;;5031115;28;20507;-60
2022/04/26 13:15:11;;;;;;;6.20;5.70;;;;;;;;;;5031251;28;20796;-54
2022/04/26 13:17:40;;;;;;;7.77;7.00;;;;;;;;;;5031263;28;20400;-55
2022/04/26 13:20:07;;;;;;;7.17;6.47;;;;;;;;;;5031279;28;20416;-59
2022/04/26 13:22:33;;;;;;;10.17;6.70;;;;;;;;;;5031192;28;20539;-59
2022/04/26 13:24:59;;;;;;;7.93;7.23;;;;;;;;;;5031347;28;20411;-52
2022/04/26 13:27:25;;;;;;;7.90;7.20;;;;;;;;;;5030104;28;20456;-65
2022/04/26 13:29:52;;;;;;;7.50;6.80;;;;;;;;;;5033877;28;20404;-54
2022/04/26 13:32:18;;;;;;;11.20;6.57;;;;;;;;;;5035215;28;20401;-54
2022/04/26 13:34:44;;;;;;;9.23;6.67;;;;;;;;;;5034905;28;20443;-62
2022/04/26 13:37:14;;;;;;;6.60;5.90;;;;;;;;;;5033581;28;20493;-51
2022/04/26 13:39:45;;;;;;;7.47;6.87;;;;;;;;;;5033532;28;20424;-54
2022/04/26 13:42:11;;;;;;;6.80;6.10;;;;;;;;;;5033669;28;20556;-62
2022/04/26 13:44:37;;;;;;;6.30;5.70;;;;;;;;;;5034801;28;20490;-54
2022/04/26 13:47:04;;;;;;;5.63;5.10;;;;;;;;;;5034808;28;20463;-53
2022/04/26 13:49:36;;;;;;;6.23;4.90;;;;;;;;;;5034821;28;20917;-55
2022/04/26 13:52:05;;;;;;;7.30;4.93;;;;;;;;;;5034705;28;20400;-51
2022/04/26 13:54:31;;;;;;;4.93;4.53;;;;;;;;;;5034411;28;20806;-62
2022/04/26 13:56:57;;;;;;;5.60;5.10;;;;;;;;;;5034461;28;20401;-57
2022/04/26 13:59:24;;;;;;;5.10;4.70;;;;;;;;;;5034388;28;20432;-68
2022/04/26 14:01:51;;;;;;;6.33;5.03;;;;;;;;;;5034250;28;20605;-51
2022/04/26 14:04:17;;;;;;;6.67;6.00;;;;;;;;;;5034735;28;20432;-57
2022/04/26 14:06:47;;;;;;;4.80;4.50;;;;;;;;;;5034174;28;20467;-54
2022/04/26 14:09:13;;;;;;;4.50;4.20;;;;;;;;;;5033424;28;20405;-58
2022/04/26 14:11:39;;;;;;;5.50;5.00;;;;;;;;;;5034170;28;20509;-53
2022/04/26 14:22:18;;;;;;;5.13;4.60;;;;;;;;;;5033547;28;20471;-54
2022/04/26 14:24:45;;;;;;;3.97;3.77;;;;;;;;;;5034095;28;20757;-53
2022/04/26 14:27:11;;;;;;;5.20;4.70;;;;;;;;;;5033654;28;20466;-52
2022/04/26 14:29:37;;;;;;;3.40;3.10;;;;;;;;;;5033823;28;20408;-54
2022/04/26 14:32:04;;;;;;;3.80;3.53;;;;;;;;;;5033656;28;20411;-61
2022/04/26 14:34:32;;;;;;;3.43;2.87;;;;;;;;;;5032714;28;20812;-52
2022/04/26 14:37:03;;;;;;;3.67;3.40;;;;;;;;;;5033715;28;20412;-51
2022/04/26 14:39:29;;;;;;;3.33;3.13;;;;;;;;;;5033385;28;20408;-59
2022/04/26 14:41:55;;;;;;;3.77;3.50;;;;;;;;;;5033486;28;20827;-51
2022/04/26 14:44:21;;;;;;;4.43;3.93;;;;;;;;;;5033528;28;20400;-52
2022/04/26 14:46:47;;;;;;;3.67;3.37;;;;;;;;;;5034237;28;20318;-52
2022/04/26 14:49:13;;;;;;;4.20;4.00;;;;;;;;;;5033792;28;20166;-51
2022/04/26 14:51:39;;;;;;;4.10;3.80;;;;;;;;;;5032426;28;20504;-49
2022/04/26 14:54:05;;;;;;;7.13;3.87;;;;;;;;;;5033922;28;20458;-54
2022/04/26 14:56:31;;;;;;;3.70;3.50;;;;;;;;;;5032606;28;20512;-52
2022/04/26 14:59:00;;;;;;;3.77;3.57;;;;;;;;;;5033851;28;20249;-49
2022/04/26 15:01:29;;;;;;;4.40;3.13;;;;;;;;;;5033584;28;20529;-52
2022/04/26 15:03:55;;;;;;;4.83;4.53;;;;;;;;;;5033922;28;20403;-52
2022/04/26 15:06:21;;;;;;;3.80;3.50;;;;;;;;;;5033920;28;20440;-56
2022/04/26 15:11:32;;;;;;;11.17;8.50;;;;;;;;;;5033626;28;20415;-57
2022/04/26 15:16:46;;;;;;;3.93;3.70;;;;;;;;;;5033841;28;20434;-52
2022/04/26 15:19:12;;;;;;;4.50;3.60;;;;;;;;;;5032402;28;20819;-51
2022/04/26 15:21:43;;;;;;;3.60;3.30;;;;;;;;;;5033219;28;20480;-58
2022/04/26 15:24:10;;;;;;;3.27;3.03;;;;;;;;;;5033397;28;20404;-52
2022/04/26 15:26:36;;;;;;;4.27;4.00;;;;;;;;;;5033388;28;20499;-52
2022/04/26 15:29:03;;;;;;;3.23;3.07;;;;;;;;;;5032140;28;20458;-53
2022/04/26 15:31:29;;;;;;;3.93;3.73;;;;;;;;;;5033398;28;20450;-57
2022/04/26 15:33:55;;;;;;;3.73;3.17;;;;;;;;;;5033261;28;20427;-55
2022/04/26 15:36:21;;;;;;;3.47;3.27;;;;;;;;;;5033347;28;20396;-53
2022/04/26 15:38:47;;;;;;;4.90;4.50;;;;;;;;;;5033327;28;20601;-54
2022/04/26 15:41:14;;;;;;;3.17;2.83;;;;;;;;;;5032887;28;20997;-73
2022/04/26 15:43:40;;;;;;;6.90;2.80;;;;;;;;;;5033083;28;20447;-52
2022/04/26 15:46:08;;;;;;;4.20;3.00;;;;;;;;;;5032744;28;20936;-56
2022/04/26 15:48:37;;;;;;;3.23;3.00;;;;;;;;;;5033013;28;20412;-68
2022/04/26 15:51:04;;;;;;;2.90;2.80;;;;;;;;;;5032563;28;20738;-67
2022/04/26 15:53:33;;;;;;;3.07;2.87;;;;;;;;;;5032917;28;20400;-67
2022/04/26 15:55:59;;;;;;;3.57;3.30;;;;;;;;;;5032933;28;20465;-59
2022/04/26 15:58:25;;;;;;;3.47;2.97;;;;;;;;;;5032697;28;20408;-55
2022/04/26 16:00:53;;;;;;;3.00;2.80;;;;;;;;;;5032552;28;20299;-57
2022/04/26 16:03:20;;;;;;;3.40;3.10;;;;;;;;;;5032951;28;20415;-56
2022/04/26 16:05:47;;;;;;;3.27;3.07;;;;;;;;;;5032803;28;20420;-52
2022/04/26 16:08:13;;;;;;;3.60;3.40;;;;;;;;;;5031374;28;20408;-58
2022/04/26 16:21:38;;;;;;;2.93;2.73;;;;;;;;;;5031316;28;20832;-58
2022/04/26 16:24:04;;;;;;;5.00;3.00;;;;;;;;;;5031283;28;20455;-56
2022/04/26 16:26:34;;;;;;;3.00;2.80;;;;;;;;;;5032616;28;20423;-59
2022/04/26 16:29:00;;;;;;;3.03;2.73;;;;;;;;;;5032386;28;20407;-62
2022/04/26 16:31:29;;;;;;;3.07;2.87;;;;;;;;;;5030883;28;20408;-66
2022/04/26 16:33:59;;;;;;;3.33;3.00;;;;;;;;;;5032479;28;20431;-56
2022/04/26 16:36:25;;;;;;;4.07;3.77;;;;;;;;;;5032591;28;20771;-68
2022/04/26 16:38:54;;;;;;;8.63;4.07;;;;;;;;;;5032457;28;20479;-59
2022/04/26 16:41:20;;;;;;;3.97;3.67;;;;;;;;;;5032088;28;21009;-50
2022/04/26 16:43:49;;;;;;;5.97;4.00;;;;;;;;;;5032465;28;20427;-51
2022/04/26 16:46:17;;;;;;;4.30;3.70;;;;;;;;;;5032597;28;20400;-51
2022/04/26 16:48:43;;;;;;;4.23;3.83;;;;;;;;;;5031077;28;20420;-52
2022/04/26 16:51:09;;;;;;;4.50;4.10;;;;;;;;;;5031037;28;20478;-51
2022/04/26 16:53:35;;;;;;;4.23;3.90;;;;;;;;;;5032417;28;20416;-48
2022/04/26 16:56:03;;;;;;;5.13;3.80;;;;;;;;;;5032243;28;20422;-52
2022/04/26 16:58:29;;;;;;;3.93;3.63;;;;;;;;;;5032161;28;20247;-52
2022/04/26 17:00:56;;;;;;;3.63;3.43;;;;;;;;;;5032079;28;20467;-54
2022/04/26 17:03:22;;;;;;;4.23;3.83;;;;;;;;;;5034268;28;20411;-51
2022/04/26 17:05:48;;;;;;;4.23;3.50;;;;;;;;;;5036127;28;20412;-51
2022/04/26 17:08:15;;;;;;;4.20;3.80;;;;;;;;;;5035936;28;20434;-53
2022/04/26 17:10:42;;;;;;;3.40;3.10;;;;;;;;;;5036030;28;20653;-52
2022/04/26 17:13:08;;;;;;;3.87;3.67;;;;;;;;;;5035734;28;20420;-56
2022/04/26 17:15:34;;;;;;;3.83;3.50;;;;;;;;;;5035955;28;20869;-61
2022/04/26 17:18:01;;;;;;;3.90;3.70;;;;;;;;;;5035800;28;20444;-53
2022/04/26 17:20:32;;;;;;;4.50;3.77;;;;;;;;;;5034745;28;20886;-59
2022/04/26 17:23:00;;;;;;;4.00;3.80;;;;;;;;;;5035443;28;20463;-57
2022/04/26 17:25:29;;;;;;;3.80;3.50;;;;;;;;;;5035551;28;20453;-50
2022/04/26 17:27:59;;;;;;;3.97;3.67;;;;;;;;;;5035675;28;20407;-55
2022/04/26 17:30:25;;;;;;;4.70;4.40;;;;;;;;;;5034894;28;20737;-54
2022/04/26 17:32:51;;;;;;;5.17;4.20;;;;;;;;;;5036059;28;20408;-52
2022/04/26 17:35:17;;;;;;;4.97;4.47;;;;;;;;;;5035631;28;20440;-58
2022/04/26 17:37:46;;;;;;;5.50;5.00;;;;;;;;;;5035368;28;20438;-55
2022/04/26 17:40:15;;;;;;;5.57;4.80;;;;;;;;;;5035279;28;20412;-56
2022/04/26 17:42:41;;;;;;;6.63;5.70;;;;;;;;;;5035373;28;20420;-58
2022/04/26 17:45:08;;;;;;;6.67;5.40;;;;;;;;;;5033884;28;20428;-53
2022/04/26 17:47:35;;;;;;;5.90;5.20;;;;;;;;;;5035343;28;20412;-54
2022/04/26 17:50:02;;;;;;;5.63;5.23;;;;;;;;;;5035058;28;20404;-54
2022/04/26 17:52:28;;;;;;;17.10;12.40;;;;;;;;;;5034983;28;20416;-59
2022/04/26 17:57:39;;;;;;;9.37;7.40;;;;;;;;;;5035420;28;20562;-51
2022/04/26 18:00:08;;;;;;;8.13;6.70;;;;;;;;;;5035041;28;20409;-54
2022/04/26 18:02:34;;;;;;;8.80;6.87;;;;;;;;;;5034994;28;20566;-58
2022/04/26 18:05:00;;;;;;;9.73;7.10;;;;;;;;;;5034004;28;21012;-51
2022/04/26 18:07:26;;;;;;;9.53;7.40;;;;;;;;;;5033865;28;20503;-52
2022/04/26 18:09:52;;;;;;;8.80;7.90;;;;;;;;;;5033768;28;20626;-52
2022/04/26 18:12:18;;;;;;;9.50;8.00;;;;;;;;;;5032566;28;20463;-52
2022/04/26 18:14:46;;;;;;;8.63;6.93;;;;;;;;;;5033228;28;20405;-51
2022/04/26 18:17:12;;;;;;;8.00;7.10;;;;;;;;;;5033624;28;20436;-55
2022/04/26 18:19:38;;;;;;;8.13;7.03;;;;;;;;;;5033549;28;20453;-54
2022/04/26 18:22:07;;;;;;;8.30;7.50;;;;;;;;;;5033416;28;20482;-50
2022/04/26 18:24:33;;;;;;;8.97;8.07;;;;;;;;;;5033529;28;20413;-51
2022/04/26 18:26:59;;;;;;;8.50;7.70;;;;;;;;;;5033602;28;20936;-50
2022/04/26 18:29:26;;;;;;;9.47;8.23;;;;;;;;;;5033473;28;20781;-55
2022/04/26 18:31:53;;;;;;;12.17;8.63;;;;;;;;;;5033396;28;20404;-53
2022/04/26 18:34:19;;;;;;;16.47;10.50;;;;;;;;;;5032403;28;20444;-61
2022/04/26 18:36:47;;;;;;;13.73;9.97;;;;;;;;;;5033812;28;20423;-54
2022/04/26 18:39:13;;;;;;;15.60;10.40;;;;;;;;;;5033054;28;20948;-55
2022/04/26 18:41:39;;;;;;;13.30;10.20;;;;;;;;;;5034012;28;20559;-51
2022/04/26 18:44:05;;;;;;;14.20;10.33;;;;;;;;;;5034017;28;20409;-55
2022/04/26 18:46:31;;;;;;;13.20;11.10;;;;;;;;;;5032663;28;20420;-53
2022/04/26 18:48:57;;;;;;;14.50;10.00;;;;;;;;;;5033806;28;20769;-54
2022/04/26 18:51:24;;;;;;;17.67;9.30;;;;;;;;;;5033921;28;20570;-57
2022/04/26 18:53:50;;;;;;;12.77;9.50;;;;;;;;;;5034141;28;20412;-54
2022/04/26 18:56:16;;;;;;;18.27;9.90;;;;;;;;;;5034208;28;20781;-52
2022/04/26 18:58:43;;;;;;;10.83;9.27;;;;;;;;;;5033942;28;20498;-50
2022/04/26 19:01:09;;;;;;;10.50;9.37;;;;;;;;;;5033625;28;20472;-57